Time,TemperatureF,DewpointF,PressureIn,WindDirection,WindDirectionDegrees,WindSpeedMPH,WindSpeedGustMPH,Humidity,HourlyPrecipIn,Conditions,Clouds,dailyrainin,SoftwareType,DateUTC
2013-03-07 00:05:00,26.6,22.4,29.68,West,270,0.0,-999.0,84,-99.99,,,0.00,Acu-Link.com,2013-03-07 08:05:00,
2013-03-07 00:20:00,26.6,22.1,29.69,ESE,112,0.0,-999.0,83,-99.99,,,0.00,Acu-Link.com,2013-03-07 08:20:00,
2013-03-07 00:36:00,26.6,21.6,29.69,SW,225,0.0,-999.0,81,-99.99,,,0.00,Acu-Link.com,2013-03-07 08:36:00,
2013-03-07 00:51:00,26.6,21.9,29.70,SW,225,0.0,-999.0,82,-99.99,,,0.00,Acu-Link.com,2013-03-07 08:51:00,
2013-03-07 01:06:00,26.6,21.6,29.70,SE,135,0.0,-999.0,81,-99.99,,,0.00,Acu-Link.com,2013-03-07 09:06:00,
2013-03-07 01:21:00,26.6,21.6,29.71,SE,135,0.0,-999.0,81,-99.99,,,0.00,Acu-Link.com,2013-03-07 09:21:00,
2013-03-07 01:37:00,26.6,21.6,29.71,SE,135,0.0,-999.0,81,-99.99,,,0.00,Acu-Link.com,2013-03-07 09:37:00,
2013-03-07 01:52:00,26.6,21.6,29.71,SW,225,0.0,-999.0,81,-99.99,,,0.00,Acu-Link.com,2013-03-07 09:52:00,
2013-03-07 02:07:00,26.6,21.0,29.72,SE,135,0.0,-999.0,79,-99.99,,,0.00,Acu-Link.com,2013-03-07 10:07:00,
2013-03-07 02:22:00,26.6,20.1,29.72,SSW,202,0.0,-999.0,76,-99.99,,,0.00,Acu-Link.com,2013-03-07 10:22:00,
2013-03-07 02:37:00,26.6,20.4,29.72,WSW,247,0.0,-999.0,77,-99.99,,,0.00,Acu-Link.com,2013-03-07 10:37:00,
2013-03-07 02:53:00,26.6,20.1,29.73,SSW,202,0.0,-999.0,76,-99.99,,,0.00,Acu-Link.com,2013-03-07 10:53:00,
2013-03-07 03:08:00,26.6,20.4,29.73,SE,135,0.0,-999.0,77,-99.99,,,0.00,Acu-Link.com,2013-03-07 11:08:00,
2013-03-07 03:23:00,26.6,20.7,29.73,SE,135,0.0,-999.0,78,-99.99,,,0.00,Acu-Link.com,2013-03-07 11:23:00,
2013-03-07 03:38:00,26.6,21.0,29.74,East,90,0.0,-999.0,79,-99.99,,,0.00,Acu-Link.com,2013-03-07 11:38:00,
2013-03-07 03:53:00,26.6,21.0,29.74,ENE,67,0.0,-999.0,79,-99.99,,,0.00,Acu-Link.com,2013-03-07 11:53:00,
2013-03-07 04:09:00,24.8,19.2,29.74,West,270,0.0,-999.0,79,-99.99,,,0.00,Acu-Link.com,2013-03-07 12:09:00,
2013-03-07 04:24:00,24.8,19.5,29.74,ENE,67,0.0,-999.0,80,-99.99,,,0.00,Acu-Link.com,2013-03-07 12:24:00,
2013-03-07 04:39:00,23.0,18.1,29.75,SW,225,0.0,-999.0,81,-99.99,,,0.00,Acu-Link.com,2013-03-07 12:39:00,
2013-03-07 04:54:00,23.0,18.1,29.76,SW,225,0.0,-999.0,81,-99.99,,,0.00,Acu-Link.com,2013-03-07 12:54:00,
2013-03-07 05:09:00,23.0,18.3,29.76,SW,225,0.0,-999.0,82,-99.99,,,0.00,Acu-Link.com,2013-03-07 13:09:00,
2013-03-07 05:24:00,21.2,16.9,29.76,SW,225,0.0,-999.0,83,-99.99,,,0.00,Acu-Link.com,2013-03-07 13:24:00,
2013-03-07 05:39:00,21.2,17.1,29.77,SW,225,0.0,-999.0,84,-99.99,,,0.00,Acu-Link.com,2013-03-07 13:39:00,
2013-03-07 05:54:00,19.4,15.4,29.77,SW,225,0.0,-999.0,84,-99.99,,,0.00,Acu-Link.com,2013-03-07 13:54:00,
2013-03-07 06:09:00,19.4,15.6,29.78,SW,225,0.0,-999.0,85,-99.99,,,0.00,Acu-Link.com,2013-03-07 14:09:00,
2013-03-07 06:24:00,19.4,15.6,29.78,SW,225,0.0,-999.0,85,-99.99,,,0.00,Acu-Link.com,2013-03-07 14:24:00,
2013-03-07 06:39:00,19.4,16.4,29.80,SW,225,0.0,-999.0,88,-99.99,,,0.00,Acu-Link.com,2013-03-07 14:39:00,
2013-03-07 06:54:00,19.4,16.4,29.80,SW,225,0.0,-999.0,88,-99.99,,,0.00,Acu-Link.com,2013-03-07 14:54:00,
2013-03-07 07:09:00,19.4,16.2,29.80,SW,225,0.0,-999.0,87,-99.99,,,0.00,Acu-Link.com,2013-03-07 15:09:00,
2013-03-07 07:25:00,19.4,15.9,29.81,SW,225,0.0,-999.0,86,-99.99,,,0.00,Acu-Link.com,2013-03-07 15:25:00,
2013-03-07 07:40:00,19.4,15.6,29.82,SW,225,0.0,-999.0,85,-99.99,,,0.00,Acu-Link.com,2013-03-07 15:40:00,
2013-03-07 07:55:00,21.2,17.7,29.83,SW,225,0.0,-999.0,86,-99.99,,,0.00,Acu-Link.com,2013-03-07 15:55:00,
2013-03-07 08:10:00,23.0,18.6,29.83,SW,225,0.0,-999.0,83,-99.99,,,0.00,Acu-Link.com,2013-03-07 16:10:00,
2013-03-07 08:26:00,24.8,19.5,29.84,West,270,0.0,-999.0,80,-99.99,,,0.00,Acu-Link.com,2013-03-07 16:26:00,
2013-03-07 08:41:00,26.6,19.8,29.84,NNW,337,0.0,-999.0,75,-99.99,,,0.00,Acu-Link.com,2013-03-07 16:41:00,
2013-03-07 08:56:00,26.6,18.5,29.85,West,270,2.0,-999.0,71,-99.99,,,0.00,Acu-Link.com,2013-03-07 16:56:00,
2013-03-07 09:11:00,26.6,18.8,29.86,West,270,2.7,-999.0,72,-99.99,,,0.00,Acu-Link.com,2013-03-07 17:11:00,
2013-03-07 09:26:00,26.6,18.8,29.86,WSW,247,1.1,-999.0,72,-99.99,,,0.00,Acu-Link.com,2013-03-07 17:26:00,
2013-03-07 09:41:00,28.4,20.5,29.87,NNE,22,0.0,-999.0,72,-99.99,,,0.00,Acu-Link.com,2013-03-07 17:41:00,
2013-03-07 09:57:00,26.6,18.5,29.87,West,270,1.6,-999.0,71,-99.99,,,0.00,Acu-Link.com,2013-03-07 17:57:00,
2013-03-07 10:12:00,28.4,19.9,29.88,SSE,157,1.1,-999.0,70,-99.99,,,0.00,Acu-Link.com,2013-03-07 18:12:00,
2013-03-07 10:27:00,28.4,18.9,29.89,NW,315,2.7,-999.0,67,-99.99,,,0.00,Acu-Link.com,2013-03-07 18:27:00,
2013-03-07 10:42:00,28.4,18.5,29.88,NNW,337,1.6,-999.0,66,-99.99,,,0.00,Acu-Link.com,2013-03-07 18:42:00,
2013-03-07 10:57:00,28.4,19.2,29.89,West,270,2.0,-999.0,68,-99.99,,,0.00,Acu-Link.com,2013-03-07 18:57:00,
2013-03-07 11:12:00,30.2,18.8,29.88,West,270,2.7,-999.0,62,-99.99,,,0.00,Acu-Link.com,2013-03-07 19:12:00,
2013-03-07 11:27:00,30.2,18.8,29.88,West,270,1.1,-999.0,62,-99.99,,,0.00,Acu-Link.com,2013-03-07 19:27:00,
2013-03-07 11:42:00,32.0,20.1,29.88,East,90,2.7,-999.0,61,-99.99,,,0.00,Acu-Link.com,2013-03-07 19:42:00,
2013-03-07 11:58:00,32.0,19.7,29.88,SW,225,3.1,-999.0,60,-99.99,,,0.00,Acu-Link.com,2013-03-07 19:58:00,
2013-03-07 12:13:00,32.0,18.5,29.88,WSW,247,3.1,-999.0,57,-99.99,,,0.00,Acu-Link.com,2013-03-07 20:13:00,
2013-03-07 12:28:00,32.0,17.7,29.89,ENE,67,0.0,-999.0,55,-99.99,,,0.00,Acu-Link.com,2013-03-07 20:28:00,
2013-03-07 12:43:00,32.0,17.3,29.89,NW,315,1.6,-999.0,54,-99.99,,,0.00,Acu-Link.com,2013-03-07 20:43:00,
2013-03-07 12:58:00,32.0,18.5,29.88,SW,225,0.0,-999.0,57,-99.99,,,0.00,Acu-Link.com,2013-03-07 20:58:00,
2013-03-07 13:14:00,33.8,19.4,29.88,SW,225,0.0,-999.0,55,-99.99,,,0.00,Acu-Link.com,2013-03-07 21:14:00,
2013-03-07 13:29:00,33.8,19.4,29.88,ENE,67,2.0,-999.0,55,-99.99,,,0.00,Acu-Link.com,2013-03-07 21:29:00,
2013-03-07 13:44:00,35.6,20.6,29.88,NE,45,1.6,-999.0,54,-99.99,,,0.00,Acu-Link.com,2013-03-07 21:44:00,
2013-03-07 13:59:00,33.8,20.6,29.88,West,270,0.0,-999.0,58,-99.99,,,0.00,Acu-Link.com,2013-03-07 21:59:00,
2013-03-07 14:14:00,33.8,19.8,29.88,ESE,112,0.0,-999.0,56,-99.99,,,0.00,Acu-Link.com,2013-03-07 22:14:00,
2013-03-07 14:29:00,35.6,21.0,29.88,West,270,2.7,-999.0,55,-99.99,,,0.00,Acu-Link.com,2013-03-07 22:29:00,
2013-03-07 14:45:00,35.6,19.7,29.87,West,270,3.1,-999.0,52,-99.99,,,0.00,Acu-Link.com,2013-03-07 22:45:00,
2013-03-07 15:00:00,35.6,17.9,29.88,WSW,247,1.6,-999.0,48,-99.99,,,0.00,Acu-Link.com,2013-03-07 23:00:00,
2013-03-07 15:30:00,35.6,18.3,29.88,West,270,2.7,-999.0,49,-99.99,,,0.00,Acu-Link.com,2013-03-07 23:30:00,
2013-03-07 15:46:00,35.6,19.7,29.88,West,270,0.0,-999.0,52,-99.99,,,0.00,Acu-Link.com,2013-03-07 23:46:00,
2013-03-07 16:01:00,37.4,21.9,29.88,West,270,1.1,-999.0,53,-99.99,,,0.00,Acu-Link.com,2013-03-08 00:01:00,
2013-03-07 16:16:00,37.4,20.5,29.88,West,270,1.6,-999.0,50,-99.99,,,0.00,Acu-Link.com,2013-03-08 00:16:00,
2013-03-07 16:31:00,37.4,22.7,29.88,WSW,247,0.0,-999.0,55,-99.99,,,0.00,Acu-Link.com,2013-03-08 00:31:00,
2013-03-07 16:46:00,37.4,21.4,29.88,South,180,0.0,-999.0,52,-99.99,,,0.00,Acu-Link.com,2013-03-08 00:46:00,
2013-03-07 17:02:00,35.6,20.2,29.88,South,180,0.0,-999.0,53,-99.99,,,0.00,Acu-Link.com,2013-03-08 01:02:00,
2013-03-07 17:17:00,35.6,21.5,29.88,South,180,0.0,-999.0,56,-99.99,,,0.00,Acu-Link.com,2013-03-08 01:17:00,
2013-03-07 17:32:00,35.6,22.7,29.88,South,180,0.0,-999.0,59,-99.99,,,0.00,Acu-Link.com,2013-03-08 01:32:00,
2013-03-07 17:48:00,33.8,23.3,29.88,South,180,0.0,-999.0,65,-99.99,,,0.00,Acu-Link.com,2013-03-08 01:48:00,
2013-03-07 18:03:00,33.8,21.8,29.88,WSW,247,0.0,-999.0,61,-99.99,,,0.00,Acu-Link.com,2013-03-08 02:03:00,
2013-03-07 18:18:00,32.0,20.9,29.88,WSW,247,0.0,-999.0,63,-99.99,,,0.00,Acu-Link.com,2013-03-08 02:18:00,
2013-03-07 18:33:00,32.0,20.5,29.89,West,270,0.0,-999.0,62,-99.99,,,0.00,Acu-Link.com,2013-03-08 02:33:00,
2013-03-07 18:49:00,32.0,23.7,29.90,ESE,112,0.0,-999.0,71,-99.99,,,0.00,Acu-Link.com,2013-03-08 02:49:00,
2013-03-07 19:04:00,32.0,21.6,29.91,WNW,292,0.0,-999.0,65,-99.99,,,0.00,Acu-Link.com,2013-03-08 03:04:00,
2013-03-07 19:19:00,32.0,23.0,29.92,NNE,22,0.0,-999.0,69,-99.99,,,0.00,Acu-Link.com,2013-03-08 03:19:00,
2013-03-07 19:34:00,32.0,22.7,29.91,NNE,22,0.0,-999.0,68,-99.99,,,0.00,Acu-Link.com,2013-03-08 03:34:00,
2013-03-07 19:49:00,32.0,24.0,29.92,NNE,22,0.0,-999.0,72,-99.99,,,0.00,Acu-Link.com,2013-03-08 03:49:00,
2013-03-07 20:04:00,32.0,24.7,29.92,NNE,22,0.0,-999.0,74,-99.99,,,0.00,Acu-Link.com,2013-03-08 04:04:00,
2013-03-07 20:20:00,30.2,22.3,29.92,NNE,22,0.0,-999.0,72,-99.99,,,0.00,Acu-Link.com,2013-03-08 04:20:00,
2013-03-07 20:35:00,30.2,22.3,29.92,NNE,22,0.0,-999.0,72,-99.99,,,0.00,Acu-Link.com,2013-03-08 04:35:00,
2013-03-07 20:50:00,30.2,23.2,29.92,NNE,22,0.0,-999.0,75,-99.99,,,0.00,Acu-Link.com,2013-03-08 04:50:00,
2013-03-07 21:05:00,30.2,22.9,29.92,NNE,22,0.0,-999.0,74,-99.99,,,0.00,Acu-Link.com,2013-03-08 05:05:00,
2013-03-07 21:20:00,30.2,22.9,29.92,NNE,22,0.0,-999.0,74,-99.99,,,0.00,Acu-Link.com,2013-03-08 05:20:00,
2013-03-07 21:35:00,30.2,23.9,29.92,NNE,22,0.0,-999.0,77,-99.99,,,0.00,Acu-Link.com,2013-03-08 05:35:00,
2013-03-07 21:50:00,30.2,22.9,29.93,NNE,22,0.0,-999.0,74,-99.99,,,0.00,Acu-Link.com,2013-03-08 05:50:00,
2013-03-07 22:05:00,30.2,23.6,29.93,NNE,22,0.0,-999.0,76,-99.99,,,0.00,Acu-Link.com,2013-03-08 06:05:00,
2013-03-07 22:21:00,30.2,23.2,29.93,NNE,22,0.0,-999.0,75,-99.99,,,0.00,Acu-Link.com,2013-03-08 06:21:00,
2013-03-07 22:36:00,30.2,24.2,29.93,NE,45,0.0,-999.0,78,-99.99,,,0.00,Acu-Link.com,2013-03-08 06:36:00,
2013-03-07 22:51:00,30.2,24.2,29.93,NE,45,0.0,-999.0,78,-99.99,,,0.00,Acu-Link.com,2013-03-08 06:51:00,
2013-03-07 23:06:00,30.2,23.9,29.93,NE,45,0.0,-999.0,77,-99.99,,,0.00,Acu-Link.com,2013-03-08 07:06:00,
2013-03-07 23:22:00,30.2,24.2,29.92,NE,45,0.0,-999.0,78,-99.99,,,0.00,Acu-Link.com,2013-03-08 07:22:00,
2013-03-07 23:37:00,30.2,23.6,29.92,NE,45,0.0,-999.0,76,-99.99,,,0.00,Acu-Link.com,2013-03-08 07:37:00,
2013-03-07 23:52:00,30.2,23.6,29.92,NE,45,0.0,-999.0,76,-99.99,,,0.00,Acu-Link.com,2013-03-08 07:52:00,